sensor_id;sensor_type;location;lat;lon;timestamp;pressure;altitude;pressure_sealevel;temperature;humidity
77288;BME280;66345;42.694;23.346;2023-04-03T00:01:01;94911.16;;;8.54;58.29
77288;BME280;66345;42.694;23.346;2023-04-03T00:03:27;94918.88;;;8.34;59.11
77288;BME280;66345;42.694;23.346;2023-04-03T00:05:53;94912.69;;;8.27;59.65
77288;BME280;66345;42.694;23.346;2023-04-03T00:08:19;94903.53;;;8.44;59.13
77288;BME280;66345;42.694;23.346;2023-04-03T00:10:44;94904.03;;;8.33;59.34
77288;BME280;66345;42.694;23.346;2023-04-03T00:13:10;94900.22;;;8.21;60.05
77288;BME280;66345;42.694;23.346;2023-04-03T00:15:37;94898.09;;;8.10;60.26
77288;BME280;66345;42.694;23.346;2023-04-03T00:18:03;94890.97;;;7.89;61.11
77288;BME280;66345;42.694;23.346;2023-04-03T00:20:29;94900.00;;;7.79;61.30
77288;BME280;66345;42.694;23.346;2023-04-03T00:22:54;94890.84;;;7.97;61.32
77288;BME280;66345;42.694;23.346;2023-04-03T00:25:20;94885.00;;;8.01;61.21
77288;BME280;66345;42.694;23.346;2023-04-03T00:27:46;94896.31;;;7.95;61.39
77288;BME280;66345;42.694;23.346;2023-04-03T00:30:15;94893.91;;;8.00;61.10
77288;BME280;66345;42.694;23.346;2023-04-03T00:32:41;94897.81;;;7.83;61.44
77288;BME280;66345;42.694;23.346;2023-04-03T00:35:06;94904.84;;;7.76;61.43
77288;BME280;66345;42.694;23.346;2023-04-03T00:37:32;94892.91;;;7.80;61.58
77288;BME280;66345;42.694;23.346;2023-04-03T00:39:58;94900.16;;;7.57;62.38
77288;BME280;66345;42.694;23.346;2023-04-03T00:42:24;94894.09;;;7.63;61.73
77288;BME280;66345;42.694;23.346;2023-04-03T00:47:18;94905.19;;;7.88;60.70
77288;BME280;66345;42.694;23.346;2023-04-03T00:49:44;94905.56;;;7.70;61.10
77288;BME280;66345;42.694;23.346;2023-04-03T00:52:14;94897.63;;;7.48;61.81
77288;BME280;66345;42.694;23.346;2023-04-03T00:54:42;94903.53;;;7.50;62.15
77288;BME280;66345;42.694;23.346;2023-04-03T00:57:09;94909.88;;;7.71;61.39
77288;BME280;66345;42.694;23.346;2023-04-03T00:59:39;94914.72;;;7.53;62.26
77288;BME280;66345;42.694;23.346;2023-04-03T01:02:07;94914.63;;;7.46;62.71
77288;BME280;66345;42.694;23.346;2023-04-03T01:04:39;94907.38;;;7.33;63.10
77288;BME280;66345;42.694;23.346;2023-04-03T01:07:26;94912.59;;;7.63;62.49
77288;BME280;66345;42.694;23.346;2023-04-03T01:09:57;94914.09;;;7.50;62.04
77288;BME280;66345;42.694;23.346;2023-04-03T01:12:25;94914.28;;;7.49;62.14
77288;BME280;66345;42.694;23.346;2023-04-03T01:14:57;94908.25;;;7.40;62.63
77288;BME280;66345;42.694;23.346;2023-04-03T01:25:27;94905.53;;;7.48;62.30
77288;BME280;66345;42.694;23.346;2023-04-03T01:27:53;94917.53;;;7.51;62.19
77288;BME280;66345;42.694;23.346;2023-04-03T01:30:20;94910.44;;;7.37;62.98
77288;BME280;66345;42.694;23.346;2023-04-03T01:32:46;94914.44;;;7.47;62.07
77288;BME280;66345;42.694;23.346;2023-04-03T01:35:12;94912.53;;;7.41;62.96
77288;BME280;66345;42.694;23.346;2023-04-03T01:37:38;94908.81;;;7.50;62.44
77288;BME280;66345;42.694;23.346;2023-04-03T01:40:04;94907.06;;;7.58;61.81
77288;BME280;66345;42.694;23.346;2023-04-03T01:42:30;94909.34;;;7.46;62.58
77288;BME280;66345;42.694;23.346;2023-04-03T01:44:56;94901.72;;;7.36;62.68
77288;BME280;66345;42.694;23.346;2023-04-03T01:47:21;94910.25;;;7.23;62.78
77288;BME280;66345;42.694;23.346;2023-04-03T01:49:47;94905.88;;;7.01;63.86
77288;BME280;66345;42.694;23.346;2023-04-03T01:52:12;94912.78;;;7.02;63.82
77288;BME280;66345;42.694;23.346;2023-04-03T01:54:38;94916.63;;;7.14;63.52
77288;BME280;66345;42.694;23.346;2023-04-03T01:57:03;94920.72;;;7.17;63.48
77288;BME280;66345;42.694;23.346;2023-04-03T01:59:29;94923.25;;;7.25;63.15
77288;BME280;66345;42.694;23.346;2023-04-03T02:01:54;94918.75;;;7.19;63.25
77288;BME280;66345;42.694;23.346;2023-04-03T02:04:20;94919.38;;;7.06;63.25
77288;BME280;66345;42.694;23.346;2023-04-03T02:06:45;94918.53;;;6.91;64.29
77288;BME280;66345;42.694;23.346;2023-04-03T02:09:11;94923.25;;;6.81;64.34
77288;BME280;66345;42.694;23.346;2023-04-03T02:11:36;94922.69;;;6.85;64.61
77288;BME280;66345;42.694;23.346;2023-04-03T02:14:02;94926.63;;;6.89;64.22
77288;BME280;66345;42.694;23.346;2023-04-03T02:16:27;94922.34;;;6.88;64.27
77288;BME280;66345;42.694;23.346;2023-04-03T02:18:54;94924.00;;;6.89;64.04
77288;BME280;66345;42.694;23.346;2023-04-03T02:21:19;94924.84;;;6.67;64.79
77288;BME280;66345;42.694;23.346;2023-04-03T02:23:45;94921.06;;;6.47;66.04
77288;BME280;66345;42.694;23.346;2023-04-03T02:26:12;94909.41;;;6.41;65.92
77288;BME280;66345;42.694;23.346;2023-04-03T02:28:38;94914.56;;;6.34;66.20
77288;BME280;66345;42.694;23.346;2023-04-03T02:31:04;94905.72;;;6.50;65.58
77288;BME280;66345;42.694;23.346;2023-04-03T02:33:30;94898.66;;;6.51;66.31
77288;BME280;66345;42.694;23.346;2023-04-03T02:35:55;94900.97;;;6.46;66.13
77288;BME280;66345;42.694;23.346;2023-04-03T02:38:21;94898.47;;;6.52;65.82
77288;BME280;66345;42.694;23.346;2023-04-03T02:40:47;94896.69;;;6.82;65.27
77288;BME280;66345;42.694;23.346;2023-04-03T02:43:13;94893.03;;;6.68;65.38
77288;BME280;66345;42.694;23.346;2023-04-03T02:45:41;94897.00;;;6.27;66.67
77288;BME280;66345;42.694;23.346;2023-04-03T02:48:07;94897.50;;;6.07;67.40
77288;BME280;66345;42.694;23.346;2023-04-03T02:50:32;94894.63;;;5.94;67.98
77288;BME280;66345;42.694;23.346;2023-04-03T02:52:57;94889.47;;;6.01;67.68
77288;BME280;66345;42.694;23.346;2023-04-03T02:55:23;94889.19;;;5.88;67.80
77288;BME280;66345;42.694;23.346;2023-04-03T02:57:48;94889.16;;;5.96;67.67
77288;BME280;66345;42.694;23.346;2023-04-03T03:00:14;94890.03;;;6.11;67.22
77288;BME280;66345;42.694;23.346;2023-04-03T03:02:40;94886.13;;;6.30;66.55
77288;BME280;66345;42.694;23.346;2023-04-03T03:05:06;94882.31;;;6.32;66.70
77288;BME280;66345;42.694;23.346;2023-04-03T03:07:32;94885.81;;;6.48;66.42
77288;BME280;66345;42.694;23.346;2023-04-03T03:09:58;94886.09;;;6.53;66.38
77288;BME280;66345;42.694;23.346;2023-04-03T03:12:23;94881.44;;;6.40;66.32
77288;BME280;66345;42.694;23.346;2023-04-03T03:14:49;94886.34;;;6.43;65.78
77288;BME280;66345;42.694;23.346;2023-04-03T03:17:16;94873.00;;;6.45;66.37
77288;BME280;66345;42.694;23.346;2023-04-03T03:19:42;94875.78;;;6.28;66.86
77288;BME280;66345;42.694;23.346;2023-04-03T03:22:08;94877.81;;;6.18;67.47
77288;BME280;66345;42.694;23.346;2023-04-03T03:24:33;94875.78;;;6.28;66.74
77288;BME280;66345;42.694;23.346;2023-04-03T03:26:58;94871.38;;;6.44;66.25
77288;BME280;66345;42.694;23.346;2023-04-03T03:29:24;94873.19;;;6.43;66.38
77288;BME280;66345;42.694;23.346;2023-04-03T03:31:49;94875.25;;;6.48;66.42
77288;BME280;66345;42.694;23.346;2023-04-03T03:34:15;94872.31;;;6.28;67.07
77288;BME280;66345;42.694;23.346;2023-04-03T03:36:41;94883.25;;;6.39;66.66
77288;BME280;66345;42.694;23.346;2023-04-03T03:39:06;94885.06;;;6.39;66.68
77288;BME280;66345;42.694;23.346;2023-04-03T03:41:32;94882.56;;;6.23;67.25
77288;BME280;66345;42.694;23.346;2023-04-03T03:43:57;94882.91;;;6.43;66.24
77288;BME280;66345;42.694;23.346;2023-04-03T03:46:22;94883.25;;;6.39;66.25
77288;BME280;66345;42.694;23.346;2023-04-03T03:48:48;94880.66;;;6.54;66.02
77288;BME280;66345;42.694;23.346;2023-04-03T03:51:13;94880.56;;;6.62;65.41
77288;BME280;66345;42.694;23.346;2023-04-03T03:53:39;94874.84;;;6.59;65.64
77288;BME280;66345;42.694;23.346;2023-04-03T03:56:05;94877.56;;;6.51;65.91
77288;BME280;66345;42.694;23.346;2023-04-03T03:58:31;94885.06;;;6.39;66.07
77288;BME280;66345;42.694;23.346;2023-04-03T04:01:00;94885.34;;;6.44;66.08
77288;BME280;66345;42.694;23.346;2023-04-03T04:03:26;94878.97;;;6.38;66.24
77288;BME280;66345;42.694;23.346;2023-04-03T04:05:51;94880.72;;;6.46;65.52
77288;BME280;66345;42.694;23.346;2023-04-03T04:08:17;94880.22;;;6.28;65.87
77288;BME280;66345;42.694;23.346;2023-04-03T04:10:42;94879.81;;;6.16;66.74
77288;BME280;66345;42.694;23.346;2023-04-03T04:13:08;94871.22;;;6.22;66.51
77288;BME280;66345;42.694;23.346;2023-04-03T04:15:33;94876.19;;;5.94;67.55
77288;BME280;66345;42.694;23.346;2023-04-03T04:17:59;94881.44;;;5.94;68.08
77288;BME280;66345;42.694;23.346;2023-04-03T04:20:24;94890.16;;;5.95;68.11
77288;BME280;66345;42.694;23.346;2023-04-03T04:22:50;94901.59;;;6.10;68.04
77288;BME280;66345;42.694;23.346;2023-04-03T04:25:15;94891.41;;;6.30;66.90
77288;BME280;66345;42.694;23.346;2023-04-03T04:27:41;94900.63;;;6.49;66.64
77288;BME280;66345;42.694;23.346;2023-04-03T04:30:07;94895.94;;;6.59;66.07
77288;BME280;66345;42.694;23.346;2023-04-03T04:32:32;94898.59;;;6.74;65.42
77288;BME280;66345;42.694;23.346;2023-04-03T04:34:58;94898.69;;;6.80;65.00
77288;BME280;66345;42.694;23.346;2023-04-03T04:37:23;94906.25;;;6.83;65.00
77288;BME280;66345;42.694;23.346;2023-04-03T04:39:49;94901.50;;;6.79;65.09
77288;BME280;66345;42.694;23.346;2023-04-03T04:42:15;94910.88;;;6.81;65.09
77288;BME280;66345;42.694;23.346;2023-04-03T04:44:40;94909.97;;;6.74;65.45
77288;BME280;66345;42.694;23.346;2023-04-03T04:47:05;94904.78;;;6.81;64.96
77288;BME280;66345;42.694;23.346;2023-04-03T04:49:31;94912.84;;;6.79;65.46
77288;BME280;66345;42.694;23.346;2023-04-03T04:51:57;94917.09;;;6.88;64.80
77288;BME280;66345;42.694;23.346;2023-04-03T04:54:22;94923.81;;;7.06;63.75
77288;BME280;66345;42.694;23.346;2023-04-03T04:56:47;94915.63;;;7.15;63.41
77288;BME280;66345;42.694;23.346;2023-04-03T04:59:13;94918.56;;;7.20;63.64
77288;BME280;66345;42.694;23.346;2023-04-03T05:01:38;94922.00;;;7.21;63.41
77288;BME280;66345;42.694;23.346;2023-04-03T05:04:04;94926.81;;;7.03;64.25
77288;BME280;66345;42.694;23.346;2023-04-03T05:06:30;94927.56;;;7.11;63.78
77288;BME280;66345;42.694;23.346;2023-04-03T05:08:57;94933.66;;;7.12;63.50
77288;BME280;66345;42.694;23.346;2023-04-03T05:11:22;94944.03;;;7.28;63.29
77288;BME280;66345;42.694;23.346;2023-04-03T05:13:48;94947.19;;;7.23;64.00
77288;BME280;66345;42.694;23.346;2023-04-03T05:16:13;94943.00;;;7.14;63.90
77288;BME280;66345;42.694;23.346;2023-04-03T05:18:38;94942.38;;;6.98;64.20
77288;BME280;66345;42.694;23.346;2023-04-03T05:21:04;94950.66;;;7.24;63.65
77288;BME280;66345;42.694;23.346;2023-04-03T05:23:30;94953.41;;;7.31;63.44
77288;BME280;66345;42.694;23.346;2023-04-03T05:25:55;94957.47;;;7.48;62.45
77288;BME280;66345;42.694;23.346;2023-04-03T05:28:21;94946.19;;;7.69;62.03
77288;BME280;66345;42.694;23.346;2023-04-03T05:30:52;94948.81;;;7.69;62.03
77288;BME280;66345;42.694;23.346;2023-04-03T05:33:19;94941.59;;;7.92;61.61
77288;BME280;66345;42.694;23.346;2023-04-03T05:35:45;94943.75;;;8.03;61.29
77288;BME280;66345;42.694;23.346;2023-04-03T05:38:10;94948.19;;;7.82;61.89
77288;BME280;66345;42.694;23.346;2023-04-03T05:40:36;94946.84;;;7.56;62.68
77288;BME280;66345;42.694;23.346;2023-04-03T05:43:02;94941.06;;;7.82;61.60
77288;BME280;66345;42.694;23.346;2023-04-03T05:45:27;94944.47;;;7.61;61.92
77288;BME280;66345;42.694;23.346;2023-04-03T05:47:53;94949.63;;;7.69;62.05
77288;BME280;66345;42.694;23.346;2023-04-03T05:50:18;94940.38;;;7.59;62.04
77288;BME280;66345;42.694;23.346;2023-04-03T05:52:45;94930.00;;;7.72;61.46
77288;BME280;66345;42.694;23.346;2023-04-03T05:55:12;94929.63;;;8.11;60.69
77288;BME280;66345;42.694;23.346;2023-04-03T05:57:37;94932.41;;;8.24;60.00
77288;BME280;66345;42.694;23.346;2023-04-03T06:00:05;94923.88;;;8.29;60.23
77288;BME280;66345;42.694;23.346;2023-04-03T06:02:31;94924.41;;;8.60;58.87
77288;BME280;66345;42.694;23.346;2023-04-03T06:04:57;94920.28;;;8.51;59.27
77288;BME280;66345;42.694;23.346;2023-04-03T06:07:24;94926.97;;;8.75;59.01
77288;BME280;66345;42.694;23.346;2023-04-03T06:09:53;94916.09;;;8.85;58.41
77288;BME280;66345;42.694;23.346;2023-04-03T06:12:19;94911.91;;;8.69;58.52
77288;BME280;66345;42.694;23.346;2023-04-03T06:14:46;94910.16;;;8.83;58.33
77288;BME280;66345;42.694;23.346;2023-04-03T06:17:11;94902.47;;;8.88;57.79
77288;BME280;66345;42.694;23.346;2023-04-03T06:19:37;94898.19;;;8.87;58.02
77288;BME280;66345;42.694;23.346;2023-04-03T06:22:03;94893.69;;;9.15;57.23
77288;BME280;66345;42.694;23.346;2023-04-03T06:24:29;94895.25;;;9.03;57.35
77288;BME280;66345;42.694;23.346;2023-04-03T06:26:55;94902.16;;;9.32;56.80
77288;BME280;66345;42.694;23.346;2023-04-03T06:29:21;94905.53;;;9.54;55.88
77288;BME280;66345;42.694;23.346;2023-04-03T06:31:47;94910.75;;;9.89;55.01
77288;BME280;66345;42.694;23.346;2023-04-03T06:34:13;94911.03;;;10.07;54.58
77288;BME280;66345;42.694;23.346;2023-04-03T06:36:39;94907.91;;;10.58;52.67
77288;BME280;66345;42.694;23.346;2023-04-03T06:39:05;94918.03;;;10.35;53.16
77288;BME280;66345;42.694;23.346;2023-04-03T06:41:30;94925.31;;;10.19;53.64
77288;BME280;66345;42.694;23.346;2023-04-03T06:43:56;94928.75;;;10.07;54.37
77288;BME280;66345;42.694;23.346;2023-04-03T06:46:24;94928.97;;;10.12;53.95
77288;BME280;66345;42.694;23.346;2023-04-03T06:48:50;94927.91;;;9.52;56.08
77288;BME280;66345;42.694;23.346;2023-04-03T06:51:24;94914.22;;;9.89;54.84
77288;BME280;66345;42.694;23.346;2023-04-03T06:53:52;94911.63;;;10.09;54.23
77288;BME280;66345;42.694;23.346;2023-04-03T06:56:41;94913.66;;;10.00;54.22
77288;BME280;66345;42.694;23.346;2023-04-03T06:59:06;94923.06;;;9.62;55.47
77288;BME280;66345;42.694;23.346;2023-04-03T07:01:32;94927.84;;;9.38;56.77
77288;BME280;66345;42.694;23.346;2023-04-03T07:03:57;94928.66;;;9.39;57.06
77288;BME280;66345;42.694;23.346;2023-04-03T07:06:23;94918.47;;;9.77;56.02
77288;BME280;66345;42.694;23.346;2023-04-03T07:08:51;94912.38;;;10.44;54.08
77288;BME280;66345;42.694;23.346;2023-04-03T07:11:17;94916.41;;;10.34;54.44
77288;BME280;66345;42.694;23.346;2023-04-03T07:13:43;94912.75;;;10.28;54.51
77288;BME280;66345;42.694;23.346;2023-04-03T07:16:09;94911.16;;;10.53;53.85
77288;BME280;66345;42.694;23.346;2023-04-03T07:18:35;94904.63;;;10.89;52.52
77288;BME280;66345;42.694;23.346;2023-04-03T07:21:01;94905.84;;;11.06;52.40
77288;BME280;66345;42.694;23.346;2023-04-03T07:23:27;94902.75;;;11.16;51.99
77288;BME280;66345;42.694;23.346;2023-04-03T07:25:53;94897.84;;;11.26;52.10
77288;BME280;66345;42.694;23.346;2023-04-03T07:28:19;94895.19;;;11.26;51.87
77288;BME280;66345;42.694;23.346;2023-04-03T07:30:46;94896.72;;;11.67;50.51
77288;BME280;66345;42.694;23.346;2023-04-03T07:33:14;94898.66;;;11.98;49.57
77288;BME280;66345;42.694;23.346;2023-04-03T07:35:40;94890.25;;;12.39;48.99
77288;BME280;66345;42.694;23.346;2023-04-03T07:38:06;94897.66;;;12.31;48.68
77288;BME280;66345;42.694;23.346;2023-04-03T07:40:32;94886.28;;;12.80;47.67
77288;BME280;66345;42.694;23.346;2023-04-03T07:42:57;94884.22;;;12.82;47.54
77288;BME280;66345;42.694;23.346;2023-04-03T07:45:23;94890.94;;;13.10;46.72
77288;BME280;66345;42.694;23.346;2023-04-03T07:47:49;94880.78;;;13.25;46.24
77288;BME280;66345;42.694;23.346;2023-04-03T07:50:15;94870.72;;;13.27;45.98
77288;BME280;66345;42.694;23.346;2023-04-03T07:52:40;94872.22;;;13.23;46.24
77288;BME280;66345;42.694;23.346;2023-04-03T07:55:06;94867.25;;;13.45;45.64
77288;BME280;66345;42.694;23.346;2023-04-03T07:57:32;94874.88;;;13.23;45.72
77288;BME280;66345;42.694;23.346;2023-04-03T07:59:58;94873.56;;;12.82;46.92
77288;BME280;66345;42.694;23.346;2023-04-03T08:02:23;94868.19;;;12.89;47.57
77288;BME280;66345;42.694;23.346;2023-04-03T08:04:49;94862.16;;;13.00;47.97
77288;BME280;66345;42.694;23.346;2023-04-03T08:07:15;94857.72;;;13.12;48.00
77288;BME280;66345;42.694;23.346;2023-04-03T08:09:40;94869.84;;;13.33;47.49
77288;BME280;66345;42.694;23.346;2023-04-03T08:12:06;94858.22;;;13.64;46.32
77288;BME280;66345;42.694;23.346;2023-04-03T08:14:33;94863.44;;;13.16;47.24
77288;BME280;66345;42.694;23.346;2023-04-03T08:17:01;94855.84;;;12.94;48.08
77288;BME280;66345;42.694;23.346;2023-04-03T08:19:29;94861.00;;;12.01;49.95
77288;BME280;66345;42.694;23.346;2023-04-03T08:21:55;94855.94;;;11.93;50.50
77288;BME280;66345;42.694;23.346;2023-04-03T08:24:22;94859.78;;;12.35;49.31
77288;BME280;66345;42.694;23.346;2023-04-03T08:26:47;94845.59;;;12.48;48.92
77288;BME280;66345;42.694;23.346;2023-04-03T08:29:12;94852.50;;;12.99;47.78
77288;BME280;66345;42.694;23.346;2023-04-03T08:31:41;94845.72;;;13.46;46.39
77288;BME280;66345;42.694;23.346;2023-04-03T08:34:06;94857.81;;;12.81;47.87
77288;BME280;66345;42.694;23.346;2023-04-03T08:36:32;94850.59;;;13.31;47.05
77288;BME280;66345;42.694;23.346;2023-04-03T08:38:57;94855.41;;;12.97;47.46
77288;BME280;66345;42.694;23.346;2023-04-03T08:52:11;94823.91;;;12.13;49.42
77288;BME280;66345;42.694;23.346;2023-04-03T08:54:57;94832.59;;;12.02;50.05
77288;BME280;66345;42.694;23.346;2023-04-03T08:57:30;94825.00;;;13.30;47.47
77288;BME280;66345;42.694;23.346;2023-04-03T08:59:58;94816.41;;;13.95;45.78
77288;BME280;66345;42.694;23.346;2023-04-03T09:02:31;94818.75;;;13.73;45.60
77288;BME280;66345;42.694;23.346;2023-04-03T09:04:59;94812.28;;;13.80;45.21
77288;BME280;66345;42.694;23.346;2023-04-03T09:07:54;94804.19;;;13.39;46.88
77288;BME280;66345;42.694;23.346;2023-04-03T09:10:26;94798.84;;;14.17;44.87
77288;BME280;66345;42.694;23.346;2023-04-03T09:13:02;94797.03;;;14.41;43.78
77288;BME280;66345;42.694;23.346;2023-04-03T09:15:29;94793.63;;;13.80;45.31
77288;BME280;66345;42.694;23.346;2023-04-03T09:17:58;94789.63;;;14.01;44.91
77288;BME280;66345;42.694;23.346;2023-04-03T09:22:54;94795.25;;;14.65;43.91
77288;BME280;66345;42.694;23.346;2023-04-03T09:25:22;94788.06;;;14.65;43.62
77288;BME280;66345;42.694;23.346;2023-04-03T09:27:49;94785.25;;;14.07;44.96
77288;BME280;66345;42.694;23.346;2023-04-03T09:30:17;94787.63;;;14.27;44.54
77288;BME280;66345;42.694;23.346;2023-04-03T09:32:48;94781.00;;;13.57;46.14
77288;BME280;66345;42.694;23.346;2023-04-03T09:35:19;94777.44;;;13.64;46.60
77288;BME280;66345;42.694;23.346;2023-04-03T09:37:48;94778.09;;;13.59;46.79
77288;BME280;66345;42.694;23.346;2023-04-03T09:42:53;94779.50;;;14.22;45.52
77288;BME280;66345;42.694;23.346;2023-04-03T09:45:35;94775.75;;;14.11;45.21
77288;BME280;66345;42.694;23.346;2023-04-03T09:50:37;94766.28;;;13.85;46.13
77288;BME280;66345;42.694;23.346;2023-04-03T09:53:38;94756.59;;;14.56;44.75
77288;BME280;66345;42.694;23.346;2023-04-03T09:58:44;94757.88;;;14.65;44.44
77288;BME280;66345;42.694;23.346;2023-04-03T10:01:33;94760.06;;;13.43;47.16
77288;BME280;66345;42.694;23.346;2023-04-03T10:06:31;94757.00;;;12.41;50.83
77288;BME280;66345;42.694;23.346;2023-04-03T10:09:03;94756.69;;;12.56;50.41
77288;BME280;66345;42.694;23.346;2023-04-03T10:11:30;94753.97;;;12.99;49.28
77288;BME280;66345;42.694;23.346;2023-04-03T10:14:01;94761.13;;;12.80;49.90
77288;BME280;66345;42.694;23.346;2023-04-03T10:22:04;94748.16;;;13.27;48.42
77288;BME280;66345;42.694;23.346;2023-04-03T10:27:48;94736.75;;;13.01;49.17
77288;BME280;66345;42.694;23.346;2023-04-03T10:38:48;94728.06;;;13.06;49.92
77288;BME280;66345;42.694;23.346;2023-04-03T10:46:38;94715.75;;;12.93;50.13
77288;BME280;66345;42.694;23.346;2023-04-03T10:49:19;94713.66;;;13.14;49.18
77288;BME280;66345;42.694;23.346;2023-04-03T10:52:21;94707.47;;;13.01;49.07
77288;BME280;66345;42.694;23.346;2023-04-03T10:55:01;94710.13;;;13.20;48.37
77288;BME280;66345;42.694;23.346;2023-04-03T10:57:30;94705.53;;;12.90;49.76
77288;BME280;66345;42.694;23.346;2023-04-03T11:00:04;94711.72;;;12.66;49.82
77288;BME280;66345;42.694;23.346;2023-04-03T11:03:05;94725.31;;;12.39;50.55
77288;BME280;66345;42.694;23.346;2023-04-03T11:05:42;94721.81;;;12.39;51.41
77288;BME280;66345;42.694;23.346;2023-04-03T11:10:49;94721.50;;;12.72;50.92
77288;BME280;66345;42.694;23.346;2023-04-03T11:13:38;94723.13;;;12.55;52.03
77288;BME280;66345;42.694;23.346;2023-04-03T11:16:06;94734.28;;;12.38;52.44
77288;BME280;66345;42.694;23.346;2023-04-03T11:18:47;94735.06;;;11.96;53.15
77288;BME280;66345;42.694;23.346;2023-04-03T11:21:38;94734.56;;;11.80;54.37
77288;BME280;66345;42.694;23.346;2023-04-03T11:24:15;94725.78;;;11.73;55.56
77288;BME280;66345;42.694;23.346;2023-04-03T11:26:42;94728.53;;;11.91;56.10
77288;BME280;66345;42.694;23.346;2023-04-03T11:29:19;94731.31;;;11.72;56.93
77288;BME280;66345;42.694;23.346;2023-04-03T11:34:36;94730.53;;;11.64;58.23
77288;BME280;66345;42.694;23.346;2023-04-03T11:39:50;94738.28;;;11.66;59.82
77288;BME280;66345;42.694;23.346;2023-04-03T11:42:26;94730.38;;;11.53;60.47
77288;BME280;66345;42.694;23.346;2023-04-03T11:50:49;94725.53;;;11.43;62.58
77288;BME280;66345;42.694;23.346;2023-04-03T11:58:19;94727.91;;;11.20;64.18
77288;BME280;66345;42.694;23.346;2023-04-03T12:05:48;94721.63;;;11.07;67.46
77288;BME280;66345;42.694;23.346;2023-04-03T12:16:44;94745.88;;;10.33;71.34
77288;BME280;66345;42.694;23.346;2023-04-03T12:29:27;94728.28;;;9.72;76.13
77288;BME280;66345;42.694;23.346;2023-04-03T12:37:39;94718.28;;;9.48;76.97
77288;BME280;66345;42.694;23.346;2023-04-03T12:46:13;94716.41;;;9.42;79.19
77288;BME280;66345;42.694;23.346;2023-04-03T12:48:58;94700.31;;;9.24;80.71
77288;BME280;66345;42.694;23.346;2023-04-03T12:53:50;94700.88;;;9.12;81.12
77288;BME280;66345;42.694;23.346;2023-04-03T12:56:23;94692.31;;;9.10;81.87
77288;BME280;66345;42.694;23.346;2023-04-03T12:58:51;94696.38;;;9.00;81.28
77288;BME280;66345;42.694;23.346;2023-04-03T13:01:21;94690.03;;;8.94;83.44
77288;BME280;66345;42.694;23.346;2023-04-03T13:03:50;94688.03;;;9.03;83.94
77288;BME280;66345;42.694;23.346;2023-04-03T13:06:19;94691.44;;;8.97;83.58
77288;BME280;66345;42.694;23.346;2023-04-03T13:08:55;94695.13;;;8.96;83.32
77288;BME280;66345;42.694;23.346;2023-04-03T13:11:24;94690.22;;;8.93;83.50
77288;BME280;66345;42.694;23.346;2023-04-03T13:13:55;94700.63;;;8.94;84.12
77288;BME280;66345;42.694;23.346;2023-04-03T13:16:21;94695.09;;;8.89;84.21
77288;BME280;66345;42.694;23.346;2023-04-03T13:18:51;94698.31;;;8.78;84.50
77288;BME280;66345;42.694;23.346;2023-04-03T13:21:19;94687.53;;;8.79;85.88
77288;BME280;66345;42.694;23.346;2023-04-03T13:23:48;94689.34;;;8.79;86.26
77288;BME280;66345;42.694;23.346;2023-04-03T13:26:17;94688.97;;;8.88;85.43
77288;BME280;66345;42.694;23.346;2023-04-03T13:28:45;94690.59;;;8.89;84.55
77288;BME280;66345;42.694;23.346;2023-04-03T13:34:32;94686.03;;;8.64;85.27
77288;BME280;66345;42.694;23.346;2023-04-03T13:36:36;94683.56;;;8.55;84.95
77288;BME280;66345;42.694;23.346;2023-04-03T13:41:44;94680.41;;;8.39;85.61
77288;BME280;66345;42.694;23.346;2023-04-03T13:46:53;94679.66;;;8.51;86.56
77288;BME280;66345;42.694;23.346;2023-04-03T13:49:33;94679.91;;;8.56;85.83
77288;BME280;66345;42.694;23.346;2023-04-03T13:52:00;94670.94;;;8.57;86.31
77288;BME280;66345;42.694;23.346;2023-04-03T13:54:35;94664.19;;;8.48;86.37
77288;BME280;66345;42.694;23.346;2023-04-03T13:57:02;94661.63;;;8.61;86.96
77288;BME280;66345;42.694;23.346;2023-04-03T13:59:35;94657.56;;;8.66;86.18
77288;BME280;66345;42.694;23.346;2023-04-03T14:04:32;94651.59;;;8.50;86.52
77288;BME280;66345;42.694;23.346;2023-04-03T14:06:59;94659.16;;;8.60;87.29
77288;BME280;66345;42.694;23.346;2023-04-03T14:09:26;94651.81;;;8.55;87.35
77288;BME280;66345;42.694;23.346;2023-04-03T14:11:55;94647.34;;;8.56;86.24
77288;BME280;66345;42.694;23.346;2023-04-03T14:14:26;94649.22;;;8.62;86.13
77288;BME280;66345;42.694;23.346;2023-04-03T14:16:55;94656.69;;;8.52;86.32
77288;BME280;66345;42.694;23.346;2023-04-03T14:19:24;94652.66;;;8.56;86.27
77288;BME280;66345;42.694;23.346;2023-04-03T14:21:50;94653.22;;;8.51;86.42
77288;BME280;66345;42.694;23.346;2023-04-03T14:24:17;94645.28;;;8.51;87.02
77288;BME280;66345;42.694;23.346;2023-04-03T14:26:44;94643.88;;;8.49;86.52
77288;BME280;66345;42.694;23.346;2023-04-03T14:29:12;94637.72;;;8.42;86.02
77288;BME280;66345;42.694;23.346;2023-04-03T14:31:38;94646.88;;;8.39;87.16
77288;BME280;66345;42.694;23.346;2023-04-03T14:34:03;94645.22;;;8.38;86.88
77288;BME280;66345;42.694;23.346;2023-04-03T14:36:29;94647.25;;;8.36;86.96
77288;BME280;66345;42.694;23.346;2023-04-03T14:38:56;94645.03;;;8.40;87.42
77288;BME280;66345;42.694;23.346;2023-04-03T14:41:23;94653.72;;;8.33;87.38
77288;BME280;66345;42.694;23.346;2023-04-03T14:43:50;94645.22;;;8.38;87.24
77288;BME280;66345;42.694;23.346;2023-04-03T14:46:33;94632.84;;;8.45;87.06
77288;BME280;66345;42.694;23.346;2023-04-03T14:49:00;94639.16;;;8.44;87.12
77288;BME280;66345;42.694;23.346;2023-04-03T14:51:26;94632.63;;;8.40;86.57
77288;BME280;66345;42.694;23.346;2023-04-03T14:53:53;94629.34;;;8.38;87.56
77288;BME280;66345;42.694;23.346;2023-04-03T14:56:25;94634.91;;;8.50;87.80
77288;BME280;66345;42.694;23.346;2023-04-03T14:58:57;94626.34;;;8.41;86.00
77288;BME280;66345;42.694;23.346;2023-04-03T15:01:24;94625.72;;;8.39;86.75
77288;BME280;66345;42.694;23.346;2023-04-03T15:03:49;94625.72;;;8.39;85.78
77288;BME280;66345;42.694;23.346;2023-04-03T15:06:15;94613.63;;;8.30;85.86